SBOSBO DLM / LTBS
Speedbird OnlineSpeedbird Online DLM / LTBS

Dalaman International Airport
09:30 23°C

Location Dalaman, Turkey
Latitude: 36.7131004333
Longitude: 28.7924995422
Web Wikipedia
Altitude 6 Meter / 20 Feet
Distance 2,789 KM / 1,733 Miles
from London.
Time Zone UTC +3 hours (Europe/Istanbul)
Codes IATA: DLM
ICAO: LTBS
Currency £1 equals TRY 21.04
Runways
RunwayLength (m)Surface
013000Concrete
193000Concrete
Radio
TypeDescriptionFrequency
APPAPP119.225
ATISATIS127.35
GNDGND121.9
TWRTWR118.5
Live ATC
METAR LTBS 060550Z 36008KT 330V040 9999 FEW030 23/10 Q1015 NOSIG RMK RWY19 34009KT 1CU030
TAF TAF LTBS 060440Z 0606/0706 VRB02KT CAVOK BECMG 0607/0609 21012KT SCT030 BKN100 BECMG 0615/0617 02007KT
Weather As Of 06 Oct 2022 09:30
Description Few clouds
Wind 15 km/h from North (360°)
Cloud Cover 20%
Precipitation Rain: none, Snow: none
Sunrise 07:03
Sunset 18:41
Lounges CIP Lounge, Main Terminal
Rotations During the last 90 days there were
89 flights from LGW
81 flights from LHR
88 flights to LGW
81 flights to LHR


© 2017-2022 Speedbird Online